Time;durP1;ratioP1;P1;durP2;ratioP2;P2;SDS_P1;SDS_P2;PMS_P1;PMS_P2;Temp;Humidity;BMP_temperature;BMP_pressure;BME280_temperature;BME280_humidity;BME280_pressure;Samples;Min_cycle;Max_cycle;Signal;HPM_P1;HPM_P2
2023/01/25 00:00:05;;;;;;;;;;;;;;;16.12;50.18;103997.59;2113916;28;19928;-58
2023/01/25 00:01:07;;;;;;;;;;;;;;;16.11;50.12;104006.88;2102740;28;19932;-58
2023/01/25 00:02:09;;;;;;;;;;;;;;;16.13;50.29;104007.38;2104706;28;19939;-58
2023/01/25 00:03:11;;;;;;;;;;;;;;;16.12;50.31;104003.06;2113107;28;19963;-59
2023/01/25 00:04:14;;;;;;;;;;;;;;;16.11;50.13;104006.88;2113866;28;19984;-59
2023/01/25 00:05:15;;;;;;;;;;;;;;;16.11;50.23;103995.19;2120182;27;19931;-59
2023/01/25 00:06:19;;;;;;;;;;;;;;;16.11;50.42;104006.88;2116880;27;19931;-58
2023/01/25 00:07:22;;;;;;;;;;;;;;;16.11;50.41;103995.97;2113881;28;19924;-59
2023/01/25 00:08:25;;;;;;;;;;;;;;;16.10;50.29;103999.81;2111172;28;19935;-56
2023/01/25 00:09:26;;;;;;;;;;;;;;;16.10;50.28;103999.81;2108501;28;19928;-59
2023/01/25 00:10:29;;;;;;;;;;;;;;;16.11;50.09;103987.00;2113413;27;19927;-59
2023/01/25 00:11:30;;;;;;;;;;;;;;;16.10;50.47;103990.81;2113647;27;19935;-58
2023/01/25 00:12:33;;;;;;;;;;;;;;;16.10;50.51;103988.91;2114202;27;19934;-59
2023/01/25 00:13:34;;;;;;;;;;;;;;;16.10;50.23;103985.38;2118680;27;19930;-58
2023/01/25 00:14:37;;;;;;;;;;;;;;;16.09;50.41;103979.09;2115036;27;19927;-58
2023/01/25 00:15:39;;;;;;;;;;;;;;;16.08;50.37;103980.22;2113123;27;19935;-58
2023/01/25 00:16:42;;;;;;;;;;;;;;;16.08;50.35;103974.75;2113548;28;19931;-59
2023/01/25 00:17:43;;;;;;;;;;;;;;;16.09;50.08;103981.81;2114168;27;19939;-59
2023/01/25 00:18:46;;;;;;;;;;;;;;;16.08;50.34;103977.50;2113778;27;19923;-59
2023/01/25 00:19:48;;;;;;;;;;;;;;;16.08;50.16;103977.50;2113567;28;19935;-58
2023/01/25 00:20:50;;;;;;;;;;;;;;;16.08;50.36;103969.31;2114373;27;19932;-60
2023/01/25 00:21:54;;;;;;;;;;;;;;;16.07;50.04;103969.63;2113750;28;20269;-59
2023/01/25 00:22:56;;;;;;;;;;;;;;;16.07;50.18;103967.72;2113767;27;19924;-58
2023/01/25 00:23:58;;;;;;;;;;;;;;;16.07;50.30;103972.34;2113165;28;19931;-60
2023/01/25 00:25:00;;;;;;;;;;;;;;;16.06;50.34;103959.84;2113473;27;19976;-60
2023/01/25 00:26:02;;;;;;;;;;;;;;;16.06;50.15;103965.28;2114708;27;19928;-57
2023/01/25 00:27:04;;;;;;;;;;;;;;;16.05;50.08;103961.75;2114990;28;20382;-60
2023/01/25 00:28:07;;;;;;;;;;;;;;;16.05;50.25;103961.75;2113560;28;20436;-60
2023/01/25 00:29:09;;;;;;;;;;;;;;;16.05;50.21;103959.00;2114628;27;19951;-58
2023/01/25 00:30:13;;;;;;;;;;;;;;;16.04;50.05;103957.41;2104217;28;19973;-58
2023/01/25 00:31:19;;;;;;;;;;;;;;;16.05;50.07;103958.19;2096365;28;19933;-59
2023/01/25 00:32:36;;;;;;;;;;;;;;;16.05;50.22;103952.75;2107974;28;19928;-59
2023/01/25 00:33:42;;;;;;;;;;;;;;;16.03;50.09;103955.78;2106754;28;19928;-58
2023/01/25 00:34:46;;;;;;;;;;;;;;;16.03;50.21;103953.06;2110547;28;20018;-60
2023/01/25 00:35:48;;;;;;;;;;;;;;;16.03;50.12;103950.31;2117992;27;19984;-59
2023/01/25 00:36:51;;;;;;;;;;;;;;;16.03;50.04;103953.06;2118779;27;19931;-58
2023/01/25 00:37:55;;;;;;;;;;;;;;;16.03;50.08;103950.31;2113655;28;20275;-59
2023/01/25 00:38:58;;;;;;;;;;;;;;;16.03;49.99;103949.53;2113738;28;19966;-59
2023/01/25 00:40:01;;;;;;;;;;;;;;;16.02;50.12;103943.28;2115400;27;19927;-58
2023/01/25 00:41:02;;;;;;;;;;;;;;;16.03;50.14;103941.38;2117734;27;20420;-59
2023/01/25 00:42:08;;;;;;;;;;;;;;;16.02;50.09;103948.72;2118381;27;19928;-59
2023/01/25 00:43:10;;;;;;;;;;;;;;;16.01;50.17;103944.38;2120222;28;19932;-58
2023/01/25 00:44:12;;;;;;;;;;;;;;;16.01;50.19;103941.66;2111155;28;19930;-59
2023/01/25 00:45:15;;;;;;;;;;;;;;;16.01;50.01;103943.56;2103865;28;19935;-59
2023/01/25 00:46:17;;;;;;;;;;;;;;;16.01;50.20;103940.84;2106009;28;19931;-59
2023/01/25 00:47:20;;;;;;;;;;;;;;;16.00;50.20;103940.03;2113896;28;19954;-59
2023/01/25 00:48:21;;;;;;;;;;;;;;;16.00;49.97;103937.31;2113231;28;19924;-59
2023/01/25 00:49:25;;;;;;;;;;;;;;;15.99;50.02;103943.88;2113264;28;19927;-57
2023/01/25 00:50:28;;;;;;;;;;;;;;;16.00;50.11;103944.66;2113326;28;20661;-59
2023/01/25 00:51:31;;;;;;;;;;;;;;;15.99;50.10;103932.97;2105850;28;20005;-59
2023/01/25 00:52:33;;;;;;;;;;;;;;;16.00;50.21;103933.75;2112200;28;19935;-59
2023/01/25 00:53:36;;;;;;;;;;;;;;;16.00;50.08;103939.22;2104252;28;20353;-58
2023/01/25 00:54:39;;;;;;;;;;;;;;;15.98;50.16;103936.78;2107579;28;20335;-59
2023/01/25 00:55:41;;;;;;;;;;;;;;;15.99;50.07;103938.44;2106761;28;19928;-59
2023/01/25 00:56:44;;;;;;;;;;;;;;;15.98;50.22;103936.00;2103035;28;20359;-60
2023/01/25 00:57:47;;;;;;;;;;;;;;;15.99;50.13;103935.69;2110018;28;19984;-59
2023/01/25 00:58:49;;;;;;;;;;;;;;;15.97;50.03;103929.72;2121753;28;19927;-60
2023/01/25 00:59:53;;;;;;;;;;;;;;;15.98;50.12;103930.56;2114170;28;19939;-60
2023/01/25 01:00:56;;;;;;;;;;;;;;;15.97;50.19;103932.47;2113257;28;20001;-60
2023/01/25 01:01:58;;;;;;;;;;;;;;;15.97;50.18;103927.00;2105840;28;20327;-60
2023/01/25 01:03:00;;;;;;;;;;;;;;;15.97;50.16;103920.75;2107092;28;20010;-60
2023/01/25 01:04:03;;;;;;;;;;;;;;;15.97;50.18;103924.28;2113015;28;19930;-60
2023/01/25 01:05:08;;;;;;;;;;;;;;;15.97;50.13;103921.56;2113556;28;19931;-60
2023/01/25 01:06:11;;;;;;;;;;;;;;;15.96;50.17;103917.22;2113733;28;19928;-58
2023/01/25 01:07:14;;;;;;;;;;;;;;;15.96;50.13;103917.22;2114293;28;20309;-58
2023/01/25 01:08:16;;;;;;;;;;;;;;;15.97;50.21;103912.56;2116469;28;19923;-59
2023/01/25 01:09:21;;;;;;;;;;;;;;;15.96;50.10;103910.97;2107457;28;19936;-59
2023/01/25 01:10:25;;;;;;;;;;;;;;;15.94;49.98;103914.00;2110717;28;19939;-59
2023/01/25 01:11:28;;;;;;;;;;;;;;;15.95;50.17;103915.59;2113454;28;19931;-60
2023/01/25 01:12:30;;;;;;;;;;;;;;;15.95;50.17;103914.81;2117041;28;19932;-59
2023/01/25 01:13:33;;;;;;;;;;;;;;;15.95;50.01;103910.16;2113685;28;19928;-60
2023/01/25 01:14:35;;;;;;;;;;;;;;;15.94;49.98;103908.53;2104439;28;20441;-60
2023/01/25 01:15:38;;;;;;;;;;;;;;;15.94;49.97;103918.63;2106800;28;20449;-59
2023/01/25 01:16:39;;;;;;;;;;;;;;;15.94;50.12;103913.19;2113714;28;19947;-59
2023/01/25 01:17:44;;;;;;;;;;;;;;;15.94;50.17;103910.44;2106016;28;20460;-59
2023/01/25 01:18:46;;;;;;;;;;;;;;;15.93;50.17;103906.94;2110438;28;20271;-60
2023/01/25 01:19:48;;;;;;;;;;;;;;;15.94;50.18;103907.72;2114137;28;20068;-58
2023/01/25 01:20:50;;;;;;;;;;;;;;;15.92;50.03;103902.56;2110373;28;21155;-58
2023/01/25 01:21:56;;;;;;;;;;;;;;;15.93;49.96;103909.66;2102290;28;20440;-59
2023/01/25 01:22:57;;;;;;;;;;;;;;;15.93;49.87;103911.56;2104238;28;19932;-59
2023/01/25 01:24:00;;;;;;;;;;;;;;;15.92;50.14;103908.03;2119053;28;19924;-58
2023/01/25 01:25:04;;;;;;;;;;;;;;;15.93;50.19;103911.56;2114065;28;19931;-59
2023/01/25 01:26:08;;;;;;;;;;;;;;;15.91;50.20;103909.16;2109135;28;19934;-59
2023/01/25 01:27:11;;;;;;;;;;;;;;;15.92;49.93;103910.75;2101456;28;19936;-60
2023/01/25 01:28:12;;;;;;;;;;;;;;;15.92;50.13;103918.13;2110848;28;19928;-59
2023/01/25 01:29:15;;;;;;;;;;;;;;;15.91;50.04;103911.88;2115104;27;20286;-58
2023/01/25 01:30:16;;;;;;;;;;;;;;;15.91;49.92;103920.03;2114410;28;19980;-59
2023/01/25 01:31:20;;;;;;;;;;;;;;;15.91;50.11;103906.41;2110037;28;19927;-59
2023/01/25 01:32:32;;;;;;;;;;;;;;;15.91;50.33;103914.59;2106784;28;19932;-59
2023/01/25 01:33:34;;;;;;;;;;;;;;;15.90;50.13;103915.69;2109127;28;20458;-59
2023/01/25 01:34:37;;;;;;;;;;;;;;;15.90;50.19;103912.97;2115106;28;20273;-59
2023/01/25 01:35:39;;;;;;;;;;;;;;;15.91;50.00;103919.22;2106029;28;19928;-59
2023/01/25 01:36:41;;;;;;;;;;;;;;;15.90;50.13;103917.63;2108416;28;19928;-59
2023/01/25 01:37:43;;;;;;;;;;;;;;;15.90;49.97;103915.69;2114903;27;19931;-59
2023/01/25 01:38:46;;;;;;;;;;;;;;;15.90;50.10;103917.63;2108423;28;19927;-59
2023/01/25 01:39:48;;;;;;;;;;;;;;;15.89;50.23;103922.25;2105798;28;20639;-59
2023/01/25 01:40:52;;;;;;;;;;;;;;;15.89;49.96;103922.25;2111836;28;19971;-59
2023/01/25 01:41:54;;;;;;;;;;;;;;;15.89;49.91;103916.00;2101502;28;19951;-58
2023/01/25 01:43:00;;;;;;;;;;;;;;;15.88;49.91;103909.75;2106287;28;19974;-57
2023/01/25 01:44:04;;;;;;;;;;;;;;;15.87;50.08;103913.56;2105707;28;19928;-58
2023/01/25 01:45:21;;;;;;;;;;;;;;;15.88;50.09;103912.47;2105577;28;19990;-59
2023/01/25 01:46:27;;;;;;;;;;;;;;;15.88;49.95;103912.47;2114694;28;19928;-59
2023/01/25 01:47:35;;;;;;;;;;;;;;;15.89;50.14;103910.53;2109957;28;19924;-59
2023/01/25 01:48:40;;;;;;;;;;;;;;;15.87;49.98;103912.78;2111383;28;19927;-59
2023/01/25 01:49:48;;;;;;;;;;;;;;;15.87;49.89;103908.13;2108333;28;20009;-59
2023/01/25 01:50:51;;;;;;;;;;;;;;;15.86;50.14;103909.25;2100151;28;19932;-59
2023/01/25 01:51:58;;;;;;;;;;;;;;;15.87;49.96;103910.84;2106055;28;19928;-59
2023/01/25 01:53:02;;;;;;;;;;;;;;;15.87;50.09;103910.84;2101603;28;20390;-59
2023/01/25 01:54:07;;;;;;;;;;;;;;;15.87;49.93;103916.28;2105347;28;19928;-59
2023/01/25 01:55:12;;;;;;;;;;;;;;;15.87;50.09;103907.34;2105614;28;20395;-58
2023/01/25 01:56:20;;;;;;;;;;;;;;;15.86;49.99;103911.97;2108014;27;19981;-58
2023/01/25 01:57:25;;;;;;;;;;;;;;;15.86;49.96;103908.41;2106898;28;19935;-59
2023/01/25 01:58:29;;;;;;;;;;;;;;;15.86;49.93;103906.50;2097443;28;19973;-58
2023/01/25 01:59:33;;;;;;;;;;;;;;;15.86;50.08;103906.50;2105326;28;19928;-59
2023/01/25 02:00:37;;;;;;;;;;;;;;;15.85;49.92;103910.34;2111710;28;19924;-60
2023/01/25 02:05:47;;;;;;;;;;;;;;;15.84;49.98;103892.38;2217528;23;19977;-59
2023/01/25 02:06:51;;;;;;;;;;;;;;;15.84;50.08;103897.03;2047336;28;19961;-59
2023/01/25 02:07:55;;;;;;;;;;;;;;;15.83;49.88;103893.50;2047941;28;19930;-58
2023/01/25 02:08:57;;;;;;;;;;;;;;;15.84;49.93;103895.09;2049313;29;19930;-58
2023/01/25 02:10:00;;;;;;;;;;;;;;;15.84;49.90;103891.59;2055822;28;19930;-58
2023/01/25 02:11:03;;;;;;;;;;;;;;;15.83;50.04;103888.06;2052905;28;19930;-59
2023/01/25 02:12:07;;;;;;;;;;;;;;;15.82;50.08;103889.16;2040838;29;19927;-60
2023/01/25 02:13:09;;;;;;;;;;;;;;;15.83;49.82;103893.50;2043748;28;19930;-58
2023/01/25 02:14:13;;;;;;;;;;;;;;;15.83;50.04;103890.78;2056799;28;19981;-59
2023/01/25 02:15:15;;;;;;;;;;;;;;;15.82;50.10;103889.16;2049436;28;19927;-58
2023/01/25 02:16:19;;;;;;;;;;;;;;;15.82;49.93;103883.72;2047914;29;19934;-59
2023/01/25 02:17:23;;;;;;;;;;;;;;;15.81;49.83;103887.53;2051623;28;20038;-60
2023/01/25 02:18:26;;;;;;;;;;;;;;;15.81;50.03;103887.53;2048146;29;19931;-59
2023/01/25 02:19:36;;;;;;;;;;;;;;;15.82;49.95;103885.63;2048154;28;19941;-59
2023/01/25 02:20:40;;;;;;;;;;;;;;;15.81;49.94;103882.09;2046734;28;19986;-58
2023/01/25 02:21:43;;;;;;;;;;;;;;;15.82;49.75;103883.72;2045979;28;20365;-60
2023/01/25 02:22:50;;;;;;;;;;;;;;;15.80;50.12;103885.13;2053243;28;20358;-59
2023/01/25 02:23:54;;;;;;;;;;;;;;;15.79;50.06;103884.28;2049272;28;20377;-58
2023/01/25 02:25:04;;;;;;;;;;;;;;;15.80;50.11;103883.22;2057147;28;19968;-60
2023/01/25 02:26:06;;;;;;;;;;;;;;;15.80;50.04;103880.47;2054125;28;20016;-60
2023/01/25 02:27:09;;;;;;;;;;;;;;;15.80;50.08;103891.38;2042110;28;20378;-59
2023/01/25 02:28:13;;;;;;;;;;;;;;;15.80;49.86;103891.38;2044621;29;19977;-59
2023/01/25 02:29:18;;;;;;;;;;;;;;;15.79;50.03;103880.78;2042401;28;20457;-60
2023/01/25 02:30:20;;;;;;;;;;;;;;;15.80;49.86;103885.94;2048298;28;19927;-59
2023/01/25 02:31:25;;;;;;;;;;;;;;;15.79;50.08;103878.84;2049174;29;19931;-58
2023/01/25 02:32:26;;;;;;;;;;;;;;;15.78;49.87;103877.25;2052939;28;20069;-60
2023/01/25 02:33:29;;;;;;;;;;;;;;;15.79;49.85;103878.06;2055915;28;19930;-59
2023/01/25 02:34:31;;;;;;;;;;;;;;;15.79;49.85;103876.13;2056710;28;20300;-60
2023/01/25 02:35:38;;;;;;;;;;;;;;;15.78;50.34;103874.53;2049063;28;19934;-57
2023/01/25 02:36:39;;;;;;;;;;;;;;;15.78;49.76;103876.44;2041308;29;20011;-60
2023/01/25 02:37:42;;;;;;;;;;;;;;;15.77;50.04;103875.63;2050449;28;19927;-60
2023/01/25 02:38:47;;;;;;;;;;;;;;;15.77;50.04;103864.75;2048496;28;20021;-59
2023/01/25 02:39:50;;;;;;;;;;;;;;;15.78;49.88;103876.44;2042345;28;20021;-59
2023/01/25 02:40:56;;;;;;;;;;;;;;;15.77;49.92;103875.63;2046526;28;19927;-60
2023/01/25 02:41:59;;;;;;;;;;;;;;;15.77;50.02;103870.19;2052643;28;19933;-59
2023/01/25 02:43:02;;;;;;;;;;;;;;;15.76;50.00;103873.22;2044218;28;19933;-60
2023/01/25 02:44:06;;;;;;;;;;;;;;;15.77;49.95;103869.38;2044133;28;19938;-59
2023/01/25 02:45:11;;;;;;;;;;;;;;;15.77;49.92;103874.81;2050494;28;19960;-59
2023/01/25 02:46:20;;;;;;;;;;;;;;;15.76;49.79;103879.44;2056279;28;20281;-60
2023/01/25 02:47:21;;;;;;;;;;;;;;;15.76;50.08;103874.00;2056313;28;19926;-60
2023/01/25 02:48:24;;;;;;;;;;;;;;;15.75;49.82;103875.13;2053096;28;19930;-58
2023/01/25 02:49:25;;;;;;;;;;;;;;;15.75;50.36;103875.13;2052284;28;19933;-60
2023/01/25 02:50:28;;;;;;;;;;;;;;;15.75;50.06;103869.69;2053289;28;19934;-59
2023/01/25 02:51:31;;;;;;;;;;;;;;;15.75;49.79;103872.41;2051022;28;19938;-57
2023/01/25 02:52:33;;;;;;;;;;;;;;;15.75;50.04;103863.41;2032880;29;20019;-59
2023/01/25 02:53:35;;;;;;;;;;;;;;;15.74;49.89;103865.34;2033833;29;19927;-59
2023/01/25 02:54:38;;;;;;;;;;;;;;;15.74;50.02;103865.34;2050524;28;19942;-59
2023/01/25 02:55:40;;;;;;;;;;;;;;;15.74;49.85;103865.34;2054952;28;19927;-58
2023/01/25 02:56:44;;;;;;;;;;;;;;;15.73;49.69;103858.25;2038449;29;20047;-57
2023/01/25 02:57:46;;;;;;;;;;;;;;;15.73;49.95;103863.72;2039355;29;20421;-60
2023/01/25 02:58:50;;;;;;;;;;;;;;;15.74;49.96;103864.53;2048776;28;20071;-59
2023/01/25 02:59:53;;;;;;;;;;;;;;;15.74;49.78;103856.34;2052652;28;19934;-59
2023/01/25 03:00:57;;;;;;;;;;;;;;;15.74;49.76;103853.63;2046980;28;20335;-60
2023/01/25 03:02:00;;;;;;;;;;;;;;;15.74;49.91;103859.09;2032516;29;20395;-54
2023/01/25 03:03:04;;;;;;;;;;;;;;;15.72;49.92;103856.66;2035105;29;20473;-57
2023/01/25 03:04:07;;;;;;;;;;;;;;;15.72;49.92;103851.22;2046778;28;19934;-58
2023/01/25 03:05:10;;;;;;;;;;;;;;;15.73;49.83;103849.31;2051470;28;20041;-58
2023/01/25 03:06:12;;;;;;;;;;;;;;;15.72;49.90;103843.03;2036271;29;19926;-60
2023/01/25 03:07:17;;;;;;;;;;;;;;;15.72;49.85;103848.50;2032076;29;19974;-59
2023/01/25 03:08:18;;;;;;;;;;;;;;;15.72;49.78;103848.50;2033511;29;20571;-59
2023/01/25 03:09:24;;;;;;;;;;;;;;;15.72;49.99;103837.59;2040793;29;19931;-59
2023/01/25 03:10:25;;;;;;;;;;;;;;;15.72;49.78;103839.50;2041794;29;19927;-59
2023/01/25 03:11:30;;;;;;;;;;;;;;;15.71;49.78;103833.25;2034634;29;19931;-59
2023/01/25 03:12:34;;;;;;;;;;;;;;;15.70;49.79;103831.63;2041808;29;19981;-58
2023/01/25 03:13:37;;;;;;;;;;;;;;;15.71;49.80;103836.00;2045968;28;19977;-60
2023/01/25 03:14:39;;;;;;;;;;;;;;;15.71;49.85;103844.16;2042565;28;20313;-60
2023/01/25 03:15:44;;;;;;;;;;;;;;;15.70;49.84;103831.63;2039790;29;19931;-59
2023/01/25 03:16:45;;;;;;;;;;;;;;;15.70;49.80;103831.63;2035091;29;19931;-59
2023/01/25 03:17:49;;;;;;;;;;;;;;;15.70;49.91;103836.25;2038008;29;19981;-58
2023/01/25 03:18:53;;;;;;;;;;;;;;;15.70;49.71;103839.00;2040361;29;20018;-60
2023/01/25 03:19:57;;;;;;;;;;;;;;;15.69;49.87;103835.47;2045753;28;19926;-58
2023/01/25 03:21:06;;;;;;;;;;;;;;;15.69;49.70;103834.66;2036420;29;20025;-59
2023/01/25 03:22:09;;;;;;;;;;;;;;;15.69;49.73;103830.03;2038912;29;20465;-58
2023/01/25 03:23:11;;;;;;;;;;;;;;;15.69;49.65;103830.03;2046649;28;19926;-59
2023/01/25 03:24:14;;;;;;;;;;;;;;;15.69;49.74;103824.59;2040825;29;19930;-59
2023/01/25 03:25:19;;;;;;;;;;;;;;;15.69;49.64;103824.59;2034715;29;19935;-59
2023/01/25 03:26:30;;;;;;;;;;;;;;;15.69;49.43;103815.59;2039627;29;19968;-59
2023/01/25 03:27:47;;;;;;;;;;;;;;;15.69;49.88;103815.59;2046490;28;19979;-59
2023/01/25 03:28:50;;;;;;;;;;;;;;;15.68;49.68;103817.50;2045250;29;19934;-60
2023/01/25 03:29:52;;;;;;;;;;;;;;;15.68;49.85;103814.00;2036502;29;19931;-59
2023/01/25 03:30:57;;;;;;;;;;;;;;;15.67;49.46;103815.91;2033656;29;19934;-59
2023/01/25 03:31:59;;;;;;;;;;;;;;;15.68;49.64;103811.25;2032139;29;19935;-59
2023/01/25 03:33:02;;;;;;;;;;;;;;;15.67;49.65;103807.72;2035306;29;20291;-60
2023/01/25 03:34:03;;;;;;;;;;;;;;;15.68;50.08;103809.31;2039410;29;20006;-59
2023/01/25 03:35:10;;;;;;;;;;;;;;;15.67;49.84;103809.63;2040227;29;20496;-59
2023/01/25 03:36:12;;;;;;;;;;;;;;;15.67;49.73;103807.72;2043937;29;19927;-60
2023/01/25 03:37:15;;;;;;;;;;;;;;;15.67;49.70;103809.63;2039895;29;19931;-59
2023/01/25 03:38:18;;;;;;;;;;;;;;;15.66;49.65;103808.84;2041789;29;19930;-59
2023/01/25 03:39:21;;;;;;;;;;;;;;;15.67;49.83;103809.63;2032465;29;19930;-59
2023/01/25 03:40:23;;;;;;;;;;;;;;;15.65;49.85;103801.75;2024926;29;19984;-59
2023/01/25 03:41:26;;;;;;;;;;;;;;;15.65;49.87;103812.66;2045720;28;19930;-56
2023/01/25 03:42:31;;;;;;;;;;;;;;;15.65;49.71;103806.44;2037556;29;19957;-60
2023/01/25 03:43:35;;;;;;;;;;;;;;;15.65;49.80;103804.50;2035513;29;19938;-60
2023/01/25 03:44:37;;;;;;;;;;;;;;;15.65;49.71;103807.22;2048173;28;20338;-58
2023/01/25 03:45:39;;;;;;;;;;;;;;;15.66;49.63;103806.13;2045853;29;19933;-60
2023/01/25 03:46:41;;;;;;;;;;;;;;;15.64;49.86;103805.59;2047403;28;19962;-60
2023/01/25 03:47:45;;;;;;;;;;;;;;;15.64;49.88;103800.16;2038181;29;19930;-59
2023/01/25 03:48:48;;;;;;;;;;;;;;;15.64;49.57;103805.59;2029060;29;19990;-57
2023/01/25 03:49:50;;;;;;;;;;;;;;;15.66;49.64;103802.59;2036890;29;19981;-56
2023/01/25 03:50:54;;;;;;;;;;;;;;;15.65;49.72;103799.03;2039671;29;20461;-57
2023/01/25 03:51:57;;;;;;;;;;;;;;;15.64;49.72;103808.34;2047267;28;19930;-56
2023/01/25 03:53:18;;;;;;;;;;;;;;;15.63;49.83;103804.00;2040710;29;19926;-56
2023/01/25 03:54:21;;;;;;;;;;;;;;;15.63;49.71;103801.28;2031812;29;19935;-56
2023/01/25 03:55:23;;;;;;;;;;;;;;;15.64;49.64;103804.78;2033898;29;19974;-56
2023/01/25 03:56:25;;;;;;;;;;;;;;;15.64;49.64;103807.53;2038380;29;19931;-56
2023/01/25 03:57:52;;;;;;;;;;;;;;;15.63;49.67;103803.19;2036871;29;19934;-56
2023/01/25 03:58:55;;;;;;;;;;;;;;;15.63;49.60;103814.91;2036639;29;19937;-56
2023/01/25 03:59:58;;;;;;;;;;;;;;;15.62;49.72;103810.53;2047999;28;20463;-56
2023/01/25 04:01:00;;;;;;;;;;;;;;;15.62;49.63;103807.81;2040380;28;19942;-57
2023/01/25 04:02:03;;;;;;;;;;;;;;;15.62;49.64;103809.75;2035409;29;20401;-57
2023/01/25 04:03:05;;;;;;;;;;;;;;;15.63;49.72;103808.63;2037736;29;20301;-56
2023/01/25 04:04:07;;;;;;;;;;;;;;;15.62;49.65;103805.09;2037280;29;20449;-57
2023/01/25 04:05:11;;;;;;;;;;;;;;;15.62;49.65;103807.81;2033745;29;19931;-58
2023/01/25 04:06:14;;;;;;;;;;;;;;;15.61;49.59;103806.22;2031357;29;20026;-57
2023/01/25 04:07:17;;;;;;;;;;;;;;;15.61;49.46;103800.78;2026081;29;19939;-57
2023/01/25 04:08:20;;;;;;;;;;;;;;;15.60;49.59;103804.59;2038475;28;19927;-57
2023/01/25 04:09:22;;;;;;;;;;;;;;;15.60;49.59;103804.59;2047667;29;20373;-55
2023/01/25 04:10:28;;;;;;;;;;;;;;;15.61;49.73;103806.22;2042488;28;19958;-56
2023/01/25 04:11:30;;;;;;;;;;;;;;;15.61;49.67;103810.84;2036275;29;19931;-56
2023/01/25 04:12:32;;;;;;;;;;;;;;;15.60;49.63;103801.84;2039610;29;19931;-55
2023/01/25 04:13:35;;;;;;;;;;;;;;;15.60;49.67;103799.13;2036883;29;19937;-56
2023/01/25 04:14:41;;;;;;;;;;;;;;;15.59;49.71;103797.53;2032374;29;20022;-57
2023/01/25 04:15:52;;;;;;;;;;;;;;;15.60;49.61;103798.34;2031952;29;19931;-56
2023/01/25 04:17:17;;;;;;;;;;;;;;;15.59;49.55;103789.38;2038053;29;20651;-56
2023/01/25 04:18:27;;;;;;;;;;;;;;;15.59;49.70;103786.63;2043599;28;20290;-56
2023/01/25 04:19:28;;;;;;;;;;;;;;;15.59;49.74;103785.81;2040892;29;19930;-55
2023/01/25 04:20:34;;;;;;;;;;;;;;;15.60;49.67;103787.47;2034855;29;20029;-55
2023/01/25 04:21:35;;;;;;;;;;;;;;;15.58;49.50;103779.59;2032478;29;20562;-56
2023/01/25 04:22:38;;;;;;;;;;;;;;;15.58;49.58;103771.41;2031854;29;19938;-56
2023/01/25 04:23:40;;;;;;;;;;;;;;;15.57;49.32;103769.78;2039817;29;19930;-56
2023/01/25 04:24:43;;;;;;;;;;;;;;;15.58;49.53;103774.16;2047509;28;19934;-57
2023/01/25 04:25:51;;;;;;;;;;;;;;;15.59;49.66;103769.47;2042474;28;19931;-55
2023/01/25 04:26:53;;;;;;;;;;;;;;;15.57;49.66;103764.34;2043759;28;22073;-56
2023/01/25 04:27:55;;;;;;;;;;;;;;;15.58;49.51;103763.25;2042273;28;19938;-56
2023/01/25 04:28:58;;;;;;;;;;;;;;;15.57;49.69;103761.63;2046398;28;20029;-57
2023/01/25 04:30:02;;;;;;;;;;;;;;;15.57;49.68;103756.16;2038663;29;19970;-55
2023/01/25 04:31:05;;;;;;;;;;;;;;;15.57;49.46;103755.38;2032457;29;20052;-56
2023/01/25 04:32:12;;;;;;;;;;;;;;;15.57;49.42;103752.66;2042802;28;20317;-56
2023/01/25 04:33:15;;;;;;;;;;;;;;;15.57;49.55;103756.16;2048655;28;19930;-56
2023/01/25 04:34:18;;;;;;;;;;;;;;;15.57;49.53;103755.38;2045009;28;19969;-56
2023/01/25 04:35:20;;;;;;;;;;;;;;;15.57;49.63;103755.38;2033976;29;20387;-56
2023/01/25 04:36:23;;;;;;;;;;;;;;;15.56;49.45;103757.28;2036347;29;19932;-56
2023/01/25 04:37:26;;;;;;;;;;;;;;;15.56;49.61;103762.75;2040491;29;19930;-55
2023/01/25 04:38:32;;;;;;;;;;;;;;;15.55;49.46;103760.31;2046829;28;20325;-56
2023/01/25 04:39:34;;;;;;;;;;;;;;;15.55;49.71;103755.69;2049963;28;19930;-56
2023/01/25 04:40:37;;;;;;;;;;;;;;;15.56;49.53;103759.19;2037288;29;19931;-57
2023/01/25 04:41:39;;;;;;;;;;;;;;;15.56;49.60;103756.47;2030022;29;19927;-57
2023/01/25 04:42:41;;;;;;;;;;;;;;;15.55;49.51;103752.16;2027314;29;20512;-56
2023/01/25 04:43:43;;;;;;;;;;;;;;;15.55;49.51;103761.13;2033594;29;19931;-56
2023/01/25 04:44:45;;;;;;;;;;;;;;;15.54;49.49;103762.22;2048448;28;19931;-56
2023/01/25 04:45:48;;;;;;;;;;;;;;;15.54;49.45;103762.22;2043709;28;19938;-55
2023/01/25 04:46:59;;;;;;;;;;;;;;;15.54;49.66;103764.94;2040522;29;19962;-56
2023/01/25 04:48:04;;;;;;;;;;;;;;;15.55;49.61;103763.03;2037532;29;20013;-56
2023/01/25 04:49:08;;;;;;;;;;;;;;;15.54;49.49;103762.22;2038445;29;19926;-56
2023/01/25 04:50:09;;;;;;;;;;;;;;;15.54;49.51;103764.94;2031926;29;19959;-56
2023/01/25 04:51:13;;;;;;;;;;;;;;;15.54;49.50;103756.00;2039330;28;19966;-55
2023/01/25 04:52:15;;;;;;;;;;;;;;;15.54;49.39;103758.72;2043677;28;20390;-57
2023/01/25 04:53:18;;;;;;;;;;;;;;;15.52;49.43;103769.91;2038665;29;19930;-57
2023/01/25 04:54:20;;;;;;;;;;;;;;;15.53;49.42;103763.34;2042196;29;20313;-56
2023/01/25 04:55:23;;;;;;;;;;;;;;;15.53;49.57;103754.34;2040955;29;19930;-56
2023/01/25 04:56:26;;;;;;;;;;;;;;;15.52;49.51;103756.31;2041349;29;19934;-56
2023/01/25 04:57:30;;;;;;;;;;;;;;;15.53;49.42;103760.63;2042803;28;20496;-56
2023/01/25 04:58:32;;;;;;;;;;;;;;;15.52;49.54;103759.03;2041154;28;19937;-56
2023/01/25 04:59:35;;;;;;;;;;;;;;;15.52;49.49;103764.47;2047428;29;19926;-56
2023/01/25 05:00:36;;;;;;;;;;;;;;;15.52;49.61;103767.19;2039818;29;20015;-55
2023/01/25 05:01:40;;;;;;;;;;;;;;;15.52;49.35;103763.66;2038908;29;20071;-55
2023/01/25 05:02:43;;;;;;;;;;;;;;;15.51;49.48;103757.38;2031215;29;20001;-56
2023/01/25 05:03:46;;;;;;;;;;;;;;;15.52;49.60;103758.22;2035189;29;19934;-57
2023/01/25 05:05:09;;;;;;;;;;;;;;;15.51;49.47;103764.75;2045574;28;19997;-57
2023/01/25 05:06:12;;;;;;;;;;;;;;;15.51;49.51;103759.28;2048286;29;20032;-56
2023/01/25 05:07:14;;;;;;;;;;;;;;;15.51;49.67;103762.03;2037963;29;19958;-55
2023/01/25 05:08:17;;;;;;;;;;;;;;;15.50;49.55;103763.13;2041277;29;19927;-56
2023/01/25 05:09:19;;;;;;;;;;;;;;;15.50;49.45;103766.69;2030271;29;19931;-56
2023/01/25 05:10:22;;;;;;;;;;;;;;;15.50;49.47;103768.59;2034207;29;19935;-56
2023/01/25 05:11:50;;;;;;;;;;;;;;;15.50;49.54;103772.13;2039829;28;20309;-56
2023/01/25 05:13:04;;;;;;;;;;;;;;;15.49;49.45;103764.25;2044352;29;20328;-56
2023/01/25 05:14:06;;;;;;;;;;;;;;;15.49;49.54;103770.50;2037678;29;19965;-56
2023/01/25 05:15:09;;;;;;;;;;;;;;;15.48;49.45;103763.44;2028841;29;19938;-56
2023/01/25 05:16:12;;;;;;;;;;;;;;;15.50;49.44;103766.69;2037270;29;19935;-56
2023/01/25 05:17:16;;;;;;;;;;;;;;;15.50;49.49;103771.31;2042440;28;19938;-56
2023/01/25 05:18:18;;;;;;;;;;;;;;;15.50;49.43;103765.88;2041349;28;19931;-56
2023/01/25 05:19:22;;;;;;;;;;;;;;;15.49;49.56;103769.72;2041055;29;19935;-56
2023/01/25 05:20:31;;;;;;;;;;;;;;;15.49;49.54;103775.94;2045382;28;19934;-56
2023/01/25 05:22:55;;;;;;;;;;;;;;;15.48;49.52;103768.06;2038396;29;19931;-57
2023/01/25 05:23:57;;;;;;;;;;;;;;;15.49;49.53;103769.72;2045931;28;19985;-57
2023/01/25 05:25:00;;;;;;;;;;;;;;;15.48;49.47;103765.34;2035426;29;20431;-57
2023/01/25 05:27:23;;;;;;;;;;;;;;;15.48;49.52;103768.88;2041004;29;19931;-56
2023/01/25 05:28:27;;;;;;;;;;;;;;;15.46;49.37;103771.09;2048329;28;19954;-56
2023/01/25 05:29:50;;;;;;;;;;;;;;;15.47;49.35;103770.00;2042294;29;19931;-56
2023/01/25 05:30:52;;;;;;;;;;;;;;;15.46;49.47;103768.38;2027190;29;19936;-56
2023/01/25 05:32:06;;;;;;;;;;;;;;;15.46;49.29;103771.09;2040388;29;20765;-57
2023/01/25 05:33:09;;;;;;;;;;;;;;;15.46;49.48;103765.66;2046388;28;19937;-57
2023/01/25 05:34:11;;;;;;;;;;;;;;;15.46;49.29;103768.38;2041201;29;20013;-56